createdAt,value
2023-05-10T00:00:02.048Z,12.86
2023-05-10T00:00:32.052Z,12.86
2023-05-10T00:01:02.056Z,12.83
2023-05-10T00:01:32.054Z,12.81
2023-05-10T00:02:02.134Z,12.82
2023-05-10T00:02:32.259Z,12.86
2023-05-10T00:03:02.146Z,12.89
2023-05-10T00:03:32.140Z,12.91
2023-05-10T00:04:02.201Z,12.93
2023-05-10T00:04:32.049Z,12.95
2023-05-10T00:05:02.055Z,12.96
2023-05-10T00:05:32.050Z,12.97
2023-05-10T00:06:02.059Z,12.96
2023-05-10T00:06:32.050Z,12.91
2023-05-10T00:07:02.050Z,12.88
2023-05-10T00:07:32.054Z,12.89
2023-05-10T00:08:02.061Z,12.91
2023-05-10T00:08:32.055Z,12.87
2023-05-10T00:09:02.053Z,12.83
2023-05-10T00:09:32.061Z,12.81
2023-05-10T00:10:02.056Z,12.79
2023-05-10T00:10:32.061Z,12.77
2023-05-10T00:11:02.048Z,12.77
2023-05-10T00:11:32.054Z,12.83
2023-05-10T00:12:02.056Z,12.9
2023-05-10T00:12:32.053Z,12.91
2023-05-10T00:13:02.073Z,12.89
2023-05-10T00:13:32.141Z,12.83
2023-05-10T00:14:02.062Z,12.8
2023-05-10T00:14:32.052Z,12.8
2023-05-10T00:15:02.056Z,12.79
2023-05-10T00:15:32.059Z,12.81
2023-05-10T00:16:02.113Z,12.81
2023-05-10T00:16:32.229Z,12.82
2023-05-10T00:17:02.124Z,12.79
2023-05-10T00:17:32.079Z,12.74
2023-05-10T00:18:02.121Z,12.72
2023-05-10T00:18:32.087Z,12.69
2023-05-10T00:19:02.062Z,12.66
2023-05-10T00:19:32.064Z,12.69
2023-05-10T00:20:02.057Z,12.73
2023-05-10T00:20:32.058Z,12.78
2023-05-10T00:21:02.069Z,12.85
2023-05-10T00:21:32.060Z,12.88
2023-05-10T00:22:02.068Z,12.91
2023-05-10T00:22:32.057Z,12.91
2023-05-10T00:23:02.055Z,12.89
2023-05-10T00:23:32.056Z,12.82
2023-05-10T00:24:02.111Z,12.76
2023-05-10T00:24:32.061Z,12.77
2023-05-10T00:25:02.082Z,12.79
2023-05-10T00:25:32.066Z,12.8
2023-05-10T00:26:02.063Z,12.79
2023-05-10T00:26:32.056Z,12.81
2023-05-10T00:27:02.057Z,12.8
2023-05-10T00:27:32.069Z,12.79
2023-05-10T00:28:02.059Z,12.76
2023-05-10T00:28:32.063Z,12.75
2023-05-10T00:29:02.063Z,12.76
2023-05-10T00:29:32.055Z,12.74
2023-05-10T00:30:02.069Z,12.72
2023-05-10T00:30:32.062Z,12.68
2023-05-10T00:31:02.064Z,12.68
2023-05-10T00:31:32.084Z,12.7
2023-05-10T00:32:02.091Z,12.71
2023-05-10T00:32:32.241Z,12.7
2023-05-10T00:33:02.140Z,12.69
2023-05-10T00:33:32.057Z,12.62
2023-05-10T00:34:02.060Z,12.56
2023-05-10T00:34:32.065Z,12.53
2023-05-10T00:35:02.061Z,12.55
2023-05-10T00:35:32.060Z,12.57
2023-05-10T00:36:02.055Z,12.56
2023-05-10T00:36:32.064Z,12.52
2023-05-10T00:37:02.059Z,12.47
2023-05-10T00:37:32.079Z,12.47
2023-05-10T00:38:02.070Z,12.48
2023-05-10T00:38:32.061Z,12.5
2023-05-10T00:39:02.065Z,12.55
2023-05-10T00:39:32.061Z,12.58
2023-05-10T00:40:02.062Z,12.61
2023-05-10T00:40:32.060Z,12.62
2023-05-10T00:41:02.075Z,12.59
2023-05-10T00:41:32.061Z,12.59
2023-05-10T00:42:02.062Z,12.6
2023-05-10T00:42:32.084Z,12.59
2023-05-10T00:43:02.067Z,12.57
2023-05-10T00:43:32.064Z,12.51
2023-05-10T00:44:02.072Z,12.47
2023-05-10T00:44:32.064Z,12.45
2023-05-10T00:45:02.067Z,12.47
2023-05-10T00:45:32.066Z,12.47
2023-05-10T00:46:02.076Z,12.47
2023-05-10T00:46:32.116Z,12.42
2023-05-10T00:47:02.081Z,12.38
2023-05-10T00:47:32.088Z,12.34
2023-05-10T00:48:02.105Z,12.33
2023-05-10T00:48:32.076Z,12.4
2023-05-10T00:49:02.068Z,12.44
2023-05-10T00:49:32.060Z,12.44
2023-05-10T00:50:02.061Z,12.44
2023-05-10T00:50:32.076Z,12.45
2023-05-10T00:51:02.072Z,12.48
2023-05-10T00:51:32.067Z,12.53
2023-05-10T00:52:02.073Z,12.53
2023-05-10T00:52:32.062Z,12.49
2023-05-10T00:53:02.060Z,12.45
2023-05-10T00:53:32.061Z,12.45
2023-05-10T00:54:02.059Z,12.43
2023-05-10T00:54:32.080Z,12.42
2023-05-10T00:55:02.062Z,12.41
2023-05-10T00:55:32.068Z,12.42
2023-05-10T00:56:02.067Z,12.43
2023-05-10T00:56:32.066Z,12.43
2023-05-10T00:57:02.070Z,12.45
2023-05-10T00:57:32.065Z,12.46
2023-05-10T00:58:02.063Z,12.46
2023-05-10T00:58:32.067Z,12.44
2023-05-10T00:59:02.065Z,12.44
2023-05-10T00:59:32.062Z,12.41
2023-05-10T01:00:02.062Z,12.4
2023-05-10T01:00:32.068Z,12.38
2023-05-10T01:01:02.086Z,12.34
2023-05-10T01:01:32.081Z,12.35
2023-05-10T01:02:02.130Z,12.4
2023-05-10T01:02:32.166Z,12.46
2023-05-10T01:03:02.195Z,12.5
2023-05-10T01:03:32.125Z,12.49
2023-05-10T01:04:02.060Z,12.45
2023-05-10T01:04:32.124Z,12.43
2023-05-10T01:05:02.102Z,12.45
2023-05-10T01:05:32.069Z,12.48
2023-05-10T01:06:02.067Z,12.48
2023-05-10T01:06:32.067Z,12.48
2023-05-10T01:07:02.066Z,12.52
2023-05-10T01:07:32.070Z,12.53
2023-05-10T01:08:02.071Z,12.55
2023-05-10T01:08:32.067Z,12.53
2023-05-10T01:09:02.072Z,12.51
2023-05-10T01:09:32.067Z,12.49
2023-05-10T01:10:02.071Z,12.43
2023-05-10T01:10:32.077Z,12.42
2023-05-10T01:11:02.067Z,12.43
2023-05-10T01:11:32.073Z,12.48
2023-05-10T01:12:02.093Z,12.53
2023-05-10T01:12:32.078Z,12.55
2023-05-10T01:13:02.108Z,12.58
2023-05-10T01:13:32.111Z,12.58
2023-05-10T01:14:02.087Z,12.59
2023-05-10T01:14:32.081Z,12.56
2023-05-10T01:15:02.119Z,12.53
2023-05-10T01:15:32.085Z,12.53
2023-05-10T01:16:02.140Z,12.51
2023-05-10T01:16:32.108Z,12.48
2023-05-10T01:17:02.082Z,12.43
2023-05-10T01:17:32.172Z,12.37
2023-05-10T01:18:02.131Z,12.31
2023-05-10T01:18:32.074Z,12.29
2023-05-10T01:19:02.079Z,12.34
2023-05-10T01:19:32.070Z,12.41
2023-05-10T01:20:02.072Z,12.47
2023-05-10T01:20:32.072Z,12.5
2023-05-10T01:21:02.087Z,12.47
2023-05-10T01:21:32.076Z,12.43
2023-05-10T01:22:02.104Z,12.43
2023-05-10T01:22:32.075Z,12.46
2023-05-10T01:23:02.089Z,12.5
2023-05-10T01:23:32.090Z,12.55
2023-05-10T01:24:02.084Z,12.58
2023-05-10T01:24:32.102Z,12.62
2023-05-10T01:25:02.077Z,12.65
2023-05-10T01:25:32.071Z,12.68
2023-05-10T01:26:02.074Z,12.68
2023-05-10T01:26:32.079Z,12.7
2023-05-10T01:27:02.091Z,12.72
2023-05-10T01:27:32.091Z,12.74
2023-05-10T01:28:02.084Z,12.77
2023-05-10T01:28:32.080Z,12.75
2023-05-10T01:29:02.082Z,12.65
2023-05-10T01:29:32.082Z,12.59
2023-05-10T01:30:14.839Z,12.6
2023-05-10T01:30:33.132Z,12.63
2023-05-10T01:31:02.122Z,12.62
2023-05-10T01:31:32.094Z,12.58
2023-05-10T01:32:02.079Z,12.55
2023-05-10T01:32:32.102Z,12.5
2023-05-10T01:33:02.146Z,12.52
2023-05-10T01:33:32.079Z,12.58
2023-05-10T01:34:02.078Z,12.64
2023-05-10T01:34:32.080Z,12.7
2023-05-10T01:35:02.093Z,12.71
2023-05-10T01:35:32.075Z,12.74
2023-05-10T01:36:02.089Z,12.76
2023-05-10T01:36:32.079Z,12.76
2023-05-10T01:37:02.080Z,12.74
2023-05-10T01:37:32.077Z,12.75
2023-05-10T01:38:02.085Z,12.79
2023-05-10T01:38:32.077Z,12.8
2023-05-10T01:39:02.078Z,12.77
2023-05-10T01:39:32.082Z,12.77
2023-05-10T01:40:02.079Z,12.78
2023-05-10T01:40:32.078Z,12.82
2023-05-10T01:41:02.085Z,12.88
2023-05-10T01:41:32.074Z,12.92
2023-05-10T01:42:02.089Z,12.95
2023-05-10T01:42:32.073Z,12.96
2023-05-10T01:43:02.074Z,12.97
2023-05-10T01:43:32.084Z,12.94
2023-05-10T01:44:02.082Z,12.96
2023-05-10T01:44:32.079Z,13.02
2023-05-10T01:45:02.084Z,13.09
2023-05-10T01:45:32.074Z,13.13
2023-05-10T01:46:02.103Z,13.06
2023-05-10T01:46:32.106Z,13.01
2023-05-10T01:47:02.202Z,13
2023-05-10T01:47:32.131Z,13.03
2023-05-10T01:48:02.124Z,13.02
2023-05-10T01:48:32.073Z,12.97
2023-05-10T01:49:02.084Z,12.91
2023-05-10T01:49:32.077Z,12.91
2023-05-10T01:50:02.074Z,12.95
2023-05-10T01:50:32.079Z,13.05
2023-05-10T01:51:02.081Z,13.18
2023-05-10T01:51:32.073Z,13.27
2023-05-10T01:52:02.078Z,13.26
2023-05-10T01:52:32.075Z,13.23
2023-05-10T01:53:02.093Z,13.25
2023-05-10T01:53:32.077Z,13.33
2023-05-10T01:54:02.091Z,13.43
2023-05-10T01:54:32.085Z,13.49
2023-05-10T01:55:02.083Z,13.55
2023-05-10T01:55:32.075Z,13.57
2023-05-10T01:56:02.082Z,13.56
2023-05-10T01:56:32.075Z,13.55
2023-05-10T01:57:02.081Z,13.54
2023-05-10T01:57:32.072Z,13.54
2023-05-10T01:58:02.106Z,13.55
2023-05-10T01:58:32.078Z,13.5
2023-05-10T01:59:02.081Z,13.45
2023-05-10T01:59:32.086Z,13.44
2023-05-10T02:00:02.083Z,13.43
2023-05-10T02:00:32.111Z,13.48
2023-05-10T02:01:02.115Z,13.52
2023-05-10T02:01:32.076Z,13.55
2023-05-10T02:02:02.081Z,13.64
2023-05-10T02:02:32.092Z,13.74
2023-05-10T02:03:02.193Z,13.77
2023-05-10T02:03:32.136Z,13.8
2023-05-10T02:04:02.166Z,13.77
2023-05-10T02:04:32.076Z,13.79
2023-05-10T02:05:02.083Z,13.84
2023-05-10T02:05:32.080Z,13.87
2023-05-10T02:06:02.086Z,13.92
2023-05-10T02:06:32.099Z,13.97
2023-05-10T02:07:02.080Z,13.93
2023-05-10T02:07:32.075Z,13.92
2023-05-10T02:08:02.084Z,13.96
2023-05-10T02:08:32.075Z,13.92
2023-05-10T02:09:02.089Z,13.89
2023-05-10T02:09:32.077Z,13.88
2023-05-10T02:10:02.078Z,13.88
2023-05-10T02:10:32.084Z,13.88
2023-05-10T02:11:02.088Z,13.92
2023-05-10T02:11:32.091Z,14.02
2023-05-10T02:12:02.094Z,14.08
2023-05-10T02:12:32.125Z,14.08
2023-05-10T02:13:02.125Z,14.07
2023-05-10T02:13:32.171Z,14.05
2023-05-10T02:14:02.091Z,13.98
2023-05-10T02:14:32.087Z,13.91
2023-05-10T02:15:02.102Z,13.86
2023-05-10T02:15:32.084Z,13.83
2023-05-10T02:16:02.084Z,13.88
2023-05-10T02:16:32.243Z,13.95
2023-05-10T02:17:02.191Z,13.99
2023-05-10T02:17:32.123Z,14.02
2023-05-10T02:18:02.104Z,14.04
2023-05-10T02:18:32.080Z,13.96
2023-05-10T02:19:02.104Z,13.9
2023-05-10T02:19:32.093Z,13.88
2023-05-10T02:20:02.078Z,13.91
2023-05-10T02:20:32.088Z,13.97
2023-05-10T02:21:02.094Z,13.99
2023-05-10T02:21:32.087Z,13.95
2023-05-10T02:22:02.088Z,13.93
2023-05-10T02:22:32.104Z,13.93
2023-05-10T02:23:02.085Z,13.95
2023-05-10T02:23:32.092Z,14.04
2023-05-10T02:24:02.088Z,14.11
2023-05-10T02:24:32.083Z,14.22
2023-05-10T02:25:02.088Z,14.27
2023-05-10T02:25:32.086Z,14.32
2023-05-10T02:26:02.083Z,14.35
2023-05-10T02:26:32.082Z,14.31
2023-05-10T02:27:02.093Z,14.22
2023-05-10T02:27:32.090Z,14.17
2023-05-10T02:28:02.084Z,14.13
2023-05-10T02:28:32.089Z,14.1
2023-05-10T02:29:02.090Z,14.06
2023-05-10T02:29:32.095Z,14.04
2023-05-10T02:30:02.098Z,14.08
2023-05-10T02:30:32.083Z,14.13
2023-05-10T02:31:02.103Z,14.2
2023-05-10T02:31:32.100Z,14.24
2023-05-10T02:32:02.103Z,14.28
2023-05-10T02:32:32.114Z,14.22
2023-05-10T02:33:02.139Z,14.11
2023-05-10T02:33:32.086Z,14.03
2023-05-10T02:34:02.090Z,13.93
2023-05-10T02:34:32.094Z,13.89
2023-05-10T02:35:02.088Z,13.85
2023-05-10T02:35:32.089Z,13.82
2023-05-10T02:36:02.092Z,13.78
2023-05-10T02:36:32.090Z,13.76
2023-05-10T02:37:02.098Z,13.77
2023-05-10T02:37:32.087Z,13.74
2023-05-10T02:38:02.091Z,13.72
2023-05-10T02:38:32.089Z,13.75
2023-05-10T02:39:02.112Z,13.79
2023-05-10T02:39:32.087Z,13.77
2023-05-10T02:40:02.088Z,13.71
2023-05-10T02:40:32.094Z,13.64
2023-05-10T02:41:02.088Z,13.56
2023-05-10T02:41:32.091Z,13.44
2023-05-10T02:42:02.089Z,13.35
2023-05-10T02:42:32.087Z,13.33
2023-05-10T02:43:02.090Z,13.38
2023-05-10T02:43:32.093Z,13.4
2023-05-10T02:44:02.102Z,13.4
2023-05-10T02:44:32.149Z,13.41
2023-05-10T02:45:02.093Z,13.4
2023-05-10T02:45:32.117Z,13.41
2023-05-10T02:46:02.140Z,13.43
2023-05-10T02:46:32.269Z,13.44
2023-05-10T02:47:02.094Z,13.49
2023-05-10T02:47:32.110Z,13.56
2023-05-10T02:48:02.137Z,13.65
2023-05-10T02:48:32.092Z,13.73
2023-05-10T02:49:02.093Z,13.8
2023-05-10T02:49:32.087Z,13.87
2023-05-10T02:50:02.103Z,13.9
2023-05-10T02:50:32.099Z,13.85
2023-05-10T02:51:02.097Z,13.79
2023-05-10T02:51:32.102Z,13.77
2023-05-10T02:52:02.122Z,13.79
2023-05-10T02:52:32.094Z,13.83
2023-05-10T02:53:02.108Z,13.89
2023-05-10T02:53:32.094Z,13.97
2023-05-10T02:54:02.095Z,14.07
2023-05-10T02:54:32.093Z,14.15
2023-05-10T02:55:02.100Z,14.16
2023-05-10T02:55:32.096Z,14.19
2023-05-10T02:56:02.093Z,14.21
2023-05-10T02:56:32.101Z,14.2
2023-05-10T02:57:02.107Z,14.16
2023-05-10T02:57:32.103Z,14.11
2023-05-10T02:58:02.141Z,14.02
2023-05-10T02:58:32.096Z,14.03
2023-05-10T02:59:02.095Z,14.09
2023-05-10T02:59:32.105Z,14.16
2023-05-10T03:00:02.104Z,14.25
2023-05-10T03:00:32.099Z,14.3
2023-05-10T03:01:02.155Z,14.29
2023-05-10T03:01:32.115Z,14.32
2023-05-10T03:02:02.102Z,14.34
2023-05-10T03:02:32.279Z,14.32
2023-05-10T03:03:02.156Z,14.38
2023-05-10T03:03:32.097Z,14.44
2023-05-10T03:04:02.097Z,14.53
2023-05-10T03:04:32.134Z,14.61
2023-05-10T03:05:02.159Z,14.68
2023-05-10T03:05:32.096Z,14.72
2023-05-10T03:06:02.112Z,14.73
2023-05-10T03:06:32.103Z,14.76
2023-05-10T03:07:02.106Z,14.77
2023-05-10T03:07:32.101Z,14.71
2023-05-10T03:08:02.117Z,14.58
2023-05-10T03:08:32.098Z,14.5
2023-05-10T03:09:02.093Z,14.43
2023-05-10T03:09:32.099Z,14.43
2023-05-10T03:10:02.119Z,14.45
2023-05-10T03:10:32.101Z,14.47
2023-05-10T03:11:02.106Z,14.52
2023-05-10T03:11:32.106Z,14.56
2023-05-10T03:12:02.101Z,14.66
2023-05-10T03:12:32.099Z,14.74
2023-05-10T03:13:02.142Z,14.88
2023-05-10T03:13:32.132Z,15.02
2023-05-10T03:14:02.111Z,15.13
2023-05-10T03:14:32.095Z,15.27
2023-05-10T03:15:02.126Z,15.47
2023-05-10T03:15:32.115Z,15.7
2023-05-10T03:16:02.144Z,15.86
2023-05-10T03:16:32.280Z,15.98
2023-05-10T03:17:02.110Z,16.04
2023-05-10T03:17:32.128Z,16.16
2023-05-10T03:18:02.123Z,16.4
2023-05-10T03:18:32.108Z,16.59
2023-05-10T03:19:02.101Z,16.71
2023-05-10T03:19:32.104Z,16.74
2023-05-10T03:20:02.128Z,16.78
2023-05-10T03:20:32.103Z,16.81
2023-05-10T03:21:02.103Z,16.88
2023-05-10T03:21:32.099Z,16.97
2023-05-10T03:22:02.120Z,17.11
2023-05-10T03:22:32.106Z,17.21
2023-05-10T03:23:02.100Z,17.36
2023-05-10T03:23:32.102Z,17.59
2023-05-10T03:24:02.121Z,17.72
2023-05-10T03:24:32.114Z,17.83
2023-05-10T03:25:02.108Z,17.94
2023-05-10T03:25:32.105Z,18.09
2023-05-10T03:26:02.108Z,18.17
2023-05-10T03:26:32.106Z,18.34
2023-05-10T03:27:02.103Z,18.58
2023-05-10T03:27:32.127Z,18.94
2023-05-10T03:28:02.115Z,19.33
2023-05-10T03:28:32.113Z,19.61
2023-05-10T03:29:02.111Z,20.06
2023-05-10T03:29:32.110Z,20.46
2023-05-10T03:30:02.117Z,20.83
2023-05-10T03:30:32.106Z,21.11
2023-05-10T03:31:02.119Z,21.3
2023-05-10T03:31:32.115Z,21.5
2023-05-10T03:32:02.102Z,21.7
2023-05-10T03:32:32.114Z,21.73
2023-05-10T03:33:02.184Z,21.53
2023-05-10T03:33:32.111Z,21.24
2023-05-10T03:34:02.108Z,21.04
2023-05-10T03:34:32.107Z,20.95
2023-05-10T03:35:02.106Z,20.77
2023-05-10T03:35:32.114Z,20.69
2023-05-10T03:36:02.123Z,20.55
2023-05-10T03:36:32.111Z,20.3
2023-05-10T03:37:02.108Z,20.18
2023-05-10T03:37:32.108Z,20.14
2023-05-10T03:38:02.109Z,20.4
2023-05-10T03:38:32.112Z,20.82
2023-05-10T03:39:02.111Z,21.21
2023-05-10T03:39:32.143Z,21.45
2023-05-10T03:40:02.104Z,21.57
2023-05-10T03:40:32.110Z,21.77
2023-05-10T03:41:02.110Z,22.22
2023-05-10T03:41:32.121Z,22.65
2023-05-10T03:42:02.118Z,22.97
2023-05-10T03:42:32.112Z,23.18
2023-05-10T03:43:02.109Z,23.3
2023-05-10T03:43:32.113Z,23.55
2023-05-10T03:44:02.110Z,23.88
2023-05-10T03:44:32.110Z,24.28
2023-05-10T03:45:02.108Z,24.92
2023-05-10T03:45:32.104Z,25.54
2023-05-10T03:46:02.109Z,26.11
2023-05-10T03:46:32.174Z,26.85
2023-05-10T03:47:02.180Z,27.52
2023-05-10T03:47:32.119Z,28.34
2023-05-10T03:48:02.164Z,29.41
2023-05-10T03:48:32.107Z,30.44
2023-05-10T03:49:02.114Z,31.21
2023-05-10T03:49:32.112Z,31.81
2023-05-10T03:50:02.116Z,32.11
2023-05-10T03:50:32.111Z,32.42
2023-05-10T03:51:02.113Z,32.83
2023-05-10T03:51:32.116Z,33.13
2023-05-10T03:52:02.145Z,32.99
2023-05-10T03:52:32.109Z,33.1
2023-05-10T03:53:02.118Z,33.3
2023-05-10T03:53:32.113Z,33.88
2023-05-10T03:54:02.119Z,33.92
2023-05-10T03:54:32.110Z,33.8
2023-05-10T03:55:02.113Z,33.71
2023-05-10T03:55:32.116Z,33.53
2023-05-10T03:56:02.116Z,33.32
2023-05-10T03:56:32.111Z,33.14
2023-05-10T03:57:02.124Z,32.79
2023-05-10T03:57:32.114Z,32.44
2023-05-10T03:58:02.112Z,31.82
2023-05-10T03:58:32.113Z,31.22
2023-05-10T03:59:02.119Z,30.83
2023-05-10T03:59:32.123Z,30.48
2023-05-10T04:00:02.129Z,30.33
2023-05-10T04:00:32.111Z,30.02
2023-05-10T04:01:02.118Z,29.82
2023-05-10T04:01:32.120Z,29.28
2023-05-10T04:02:02.180Z,28.77
2023-05-10T04:02:32.206Z,28.3
2023-05-10T04:03:02.178Z,28
2023-05-10T04:03:32.282Z,27.86
2023-05-10T04:04:02.186Z,28.13
2023-05-10T04:04:32.117Z,28.65
2023-05-10T04:05:02.116Z,29.27
2023-05-10T04:05:32.126Z,29.85
2023-05-10T04:06:02.268Z,30.44
2023-05-10T04:06:32.171Z,30.77
2023-05-10T04:07:02.120Z,31.11
2023-05-10T04:07:32.129Z,31.54
2023-05-10T04:08:02.147Z,31.72
2023-05-10T04:08:32.113Z,31.74
2023-05-10T04:09:02.118Z,31.99
2023-05-10T04:09:32.125Z,32.31
2023-05-10T04:10:02.134Z,32.54
2023-05-10T04:10:32.112Z,32.61
2023-05-10T04:11:02.110Z,32.67
2023-05-10T04:11:32.120Z,33.04
2023-05-10T04:12:02.118Z,33.5
2023-05-10T04:12:32.160Z,33.76
2023-05-10T04:13:02.277Z,34.01
2023-05-10T04:13:32.125Z,34.08
2023-05-10T04:14:02.126Z,34.34
2023-05-10T04:14:32.151Z,34.66
2023-05-10T04:15:02.140Z,34.53
2023-05-10T04:15:32.142Z,34.02
2023-05-10T04:16:02.130Z,33.55
2023-05-10T04:16:32.157Z,33.1
2023-05-10T04:17:02.314Z,32.7
2023-05-10T04:17:32.172Z,32.45
2023-05-10T04:18:02.254Z,32.27
2023-05-10T04:18:32.133Z,31.99
2023-05-10T04:19:02.131Z,31.55
2023-05-10T04:19:32.132Z,31.05
2023-05-10T04:20:02.132Z,30.79
2023-05-10T04:20:32.120Z,30.63
2023-05-10T04:21:02.121Z,30.7
2023-05-10T04:21:32.123Z,30.87
2023-05-10T04:22:02.145Z,30.66
2023-05-10T04:22:32.128Z,30.52
2023-05-10T04:23:02.123Z,30.33
2023-05-10T04:23:32.131Z,30.03
2023-05-10T04:24:02.156Z,29.93
2023-05-10T04:24:32.140Z,30.06
2023-05-10T04:25:02.129Z,29.98
2023-05-10T04:25:32.126Z,29.5
2023-05-10T04:26:02.132Z,29.1
2023-05-10T04:26:32.125Z,28.88
2023-05-10T04:27:02.123Z,28.98
2023-05-10T04:27:32.138Z,29.02
2023-05-10T04:28:02.135Z,29.21
2023-05-10T04:28:32.142Z,29.31
2023-05-10T04:29:02.156Z,29.47
2023-05-10T04:29:32.176Z,29.53
2023-05-10T04:30:02.121Z,29.84
2023-05-10T04:30:32.178Z,30.22
2023-05-10T04:31:02.224Z,30.65
2023-05-10T04:31:32.132Z,30.99
2023-05-10T04:32:02.131Z,31.25
2023-05-10T04:32:32.196Z,31.72
2023-05-10T04:33:02.157Z,32.21
2023-05-10T04:33:32.122Z,32.65
2023-05-10T04:34:02.146Z,32.87
2023-05-10T04:34:32.131Z,33.03
2023-05-10T04:35:02.126Z,33
2023-05-10T04:35:32.132Z,32.57
2023-05-10T04:36:02.143Z,32.38
2023-05-10T04:36:32.138Z,32.19
2023-05-10T04:37:02.117Z,32.32
2023-05-10T04:37:32.127Z,32.34
2023-05-10T04:38:02.172Z,32.17
2023-05-10T04:38:32.128Z,32.05
2023-05-10T04:39:02.141Z,31.73
2023-05-10T04:39:32.175Z,31.7
2023-05-10T04:40:02.159Z,31.61
2023-05-10T04:40:32.125Z,31.38
2023-05-10T04:41:02.131Z,31.13
2023-05-10T04:41:32.127Z,30.87
2023-05-10T04:42:02.153Z,30.68
2023-05-10T04:42:32.131Z,30.66
2023-05-10T04:43:02.122Z,30.78
2023-05-10T04:43:32.126Z,30.88
2023-05-10T04:44:02.136Z,30.77
2023-05-10T04:44:32.137Z,30.61
2023-05-10T04:45:02.124Z,30.56
2023-05-10T04:45:32.138Z,30.43
2023-05-10T04:46:02.162Z,30.39
2023-05-10T04:46:32.208Z,30.37
2023-05-10T04:47:02.128Z,30.52
2023-05-10T04:47:32.147Z,30.53
2023-05-10T04:48:02.176Z,30.38
2023-05-10T04:48:32.144Z,30.44
2023-05-10T04:49:02.141Z,30.61
2023-05-10T04:49:32.122Z,30.66
2023-05-10T04:50:02.124Z,30.62
2023-05-10T04:50:32.124Z,30.59
2023-05-10T04:51:02.149Z,30.61
2023-05-10T04:51:32.126Z,30.83
2023-05-10T04:52:02.127Z,30.88
2023-05-10T04:52:32.126Z,31.08
2023-05-10T04:53:02.136Z,31.37
2023-05-10T04:53:32.133Z,31.59
2023-05-10T04:54:06.497Z,31.42
2023-05-10T04:54:34.185Z,30.89
2023-05-10T04:55:02.130Z,30.43
2023-05-10T04:55:32.141Z,29.79
2023-05-10T04:56:02.153Z,29.22
2023-05-10T04:56:32.142Z,28.79
2023-05-10T04:57:02.145Z,28.39
2023-05-10T04:57:32.131Z,27.97
2023-05-10T04:58:02.159Z,27.58
2023-05-10T04:58:32.128Z,27.28
2023-05-10T04:59:02.138Z,26.81
2023-05-10T04:59:32.135Z,26.32
2023-05-10T05:00:02.158Z,25.88
2023-05-10T05:00:32.165Z,25.58
2023-05-10T05:01:02.154Z,25.18
2023-05-10T05:01:32.226Z,24.89
2023-05-10T05:02:02.300Z,24.67
2023-05-10T05:02:32.252Z,24.49
2023-05-10T05:03:02.285Z,24.31
2023-05-10T05:03:32.202Z,24.28
2023-05-10T05:04:02.212Z,24.38
2023-05-10T05:04:32.136Z,24.61
2023-05-10T05:05:02.157Z,24.85
2023-05-10T05:05:32.131Z,25.27
2023-05-10T05:06:02.137Z,25.53
2023-05-10T05:06:32.143Z,25.64
2023-05-10T05:07:02.137Z,25.69
2023-05-10T05:07:32.175Z,25.68
2023-05-10T05:08:02.149Z,25.68
2023-05-10T05:08:32.139Z,25.58
2023-05-10T05:09:02.149Z,25.39
2023-05-10T05:09:32.133Z,25.31
2023-05-10T05:10:02.156Z,25.23
2023-05-10T05:10:32.142Z,25.2
2023-05-10T05:11:02.148Z,25.26
2023-05-10T05:11:32.153Z,25.34
2023-05-10T05:12:02.146Z,25.32
2023-05-10T05:12:32.137Z,25.22
2023-05-10T05:13:02.209Z,24.99
2023-05-10T05:13:32.169Z,24.81
2023-05-10T05:14:02.165Z,24.67
2023-05-10T05:14:32.140Z,24.51
2023-05-10T05:15:02.152Z,24.31
2023-05-10T05:15:32.151Z,24.1
2023-05-10T05:16:02.160Z,23.95
2023-05-10T05:16:32.175Z,23.78
2023-05-10T05:17:02.146Z,23.73
2023-05-10T05:17:32.164Z,23.65
2023-05-10T05:18:02.199Z,23.64
2023-05-10T05:18:32.139Z,23.7
2023-05-10T05:19:02.147Z,23.74
2023-05-10T05:19:32.138Z,23.66
2023-05-10T05:20:02.154Z,23.69
2023-05-10T05:20:32.142Z,23.97
2023-05-10T05:21:02.149Z,24.58
2023-05-10T05:21:32.134Z,25.47
2023-05-10T05:22:02.136Z,26.43
2023-05-10T05:22:32.137Z,27.43
2023-05-10T05:23:02.164Z,28.53
2023-05-10T05:23:32.140Z,29.57
2023-05-10T05:24:02.144Z,30.7
2023-05-10T05:24:32.145Z,31.77
2023-05-10T05:25:02.156Z,32.8
2023-05-10T05:25:32.146Z,33.77
2023-05-10T05:26:02.148Z,34.42
2023-05-10T05:26:32.145Z,34.81
2023-05-10T05:27:02.145Z,34.84
2023-05-10T05:27:32.148Z,34.85
2023-05-10T05:28:02.163Z,34.75
2023-05-10T05:28:32.143Z,34.57
2023-05-10T05:29:02.194Z,34.18
2023-05-10T05:29:32.145Z,33.8
2023-05-10T05:30:02.149Z,33.53
2023-05-10T05:30:32.147Z,33.53
2023-05-10T05:31:02.166Z,33.72
2023-05-10T05:31:32.168Z,33.96
2023-05-10T05:32:02.253Z,34.06
2023-05-10T05:32:32.166Z,34.1
2023-05-10T05:33:02.189Z,34.19
2023-05-10T05:33:32.143Z,34.06
2023-05-10T05:34:02.151Z,34.22
2023-05-10T05:34:32.148Z,34.1
2023-05-10T05:35:02.149Z,33.97
2023-05-10T05:35:32.154Z,33.83
2023-05-10T05:36:02.141Z,33.69
2023-05-10T05:36:32.147Z,33.79
2023-05-10T05:37:02.149Z,34
2023-05-10T05:37:32.178Z,34.22
2023-05-10T05:38:02.149Z,34.5
2023-05-10T05:38:32.149Z,34.69
2023-05-10T05:39:02.152Z,34.75
2023-05-10T05:39:32.152Z,34.84
2023-05-10T05:40:02.148Z,34.9
2023-05-10T05:40:32.152Z,35.01
2023-05-10T05:41:02.153Z,34.98
2023-05-10T05:41:32.150Z,34.96
2023-05-10T05:42:02.156Z,35.28
2023-05-10T05:42:32.150Z,36.01
2023-05-10T05:43:02.154Z,36.9
2023-05-10T05:43:32.147Z,37.36
2023-05-10T05:44:02.159Z,37.82
2023-05-10T05:44:32.179Z,38.24
2023-05-10T05:45:02.187Z,38.91
2023-05-10T05:45:32.172Z,39.28
2023-05-10T05:46:02.207Z,39.36
2023-05-10T05:46:32.149Z,39.57
2023-05-10T05:47:02.152Z,39.87
2023-05-10T05:47:32.223Z,40.41
2023-05-10T05:48:02.231Z,40.89
2023-05-10T05:48:32.166Z,41.59
2023-05-10T05:49:02.152Z,42.35
2023-05-10T05:49:32.152Z,43.04
2023-05-10T05:50:02.155Z,43.5
2023-05-10T05:50:32.156Z,43.58
2023-05-10T05:51:02.193Z,43.23
2023-05-10T05:51:32.157Z,43
2023-05-10T05:52:02.166Z,42.65
2023-05-10T05:52:32.148Z,42.04
2023-05-10T05:53:02.152Z,41.35
2023-05-10T05:53:32.155Z,40.55
2023-05-10T05:54:02.157Z,39.99
2023-05-10T05:54:32.161Z,39.84
2023-05-10T05:55:02.158Z,39.66
2023-05-10T05:55:32.155Z,39.39
2023-05-10T05:56:02.158Z,38.93
2023-05-10T05:56:32.156Z,38.78
2023-05-10T05:57:02.205Z,38.8
2023-05-10T05:57:32.156Z,38.99
2023-05-10T05:58:02.162Z,38.96
2023-05-10T05:58:32.157Z,38.75
2023-05-10T05:59:02.185Z,38.55
2023-05-10T05:59:32.155Z,38.3
2023-05-10T06:00:02.221Z,37.9
2023-05-10T06:00:32.161Z,37.58
2023-05-10T06:01:02.169Z,37.66
2023-05-10T06:01:32.158Z,37.83
2023-05-10T06:02:02.172Z,38.11
2023-05-10T06:02:32.286Z,38.55
2023-05-10T06:03:02.262Z,39.15
2023-05-10T06:03:32.246Z,39.31
2023-05-10T06:04:02.319Z,39.17
2023-05-10T06:04:32.223Z,38.95
2023-05-10T06:05:02.197Z,38.46
2023-05-10T06:05:32.166Z,38.12
2023-05-10T06:06:02.164Z,38.29
2023-05-10T06:06:32.165Z,38.57
2023-05-10T06:07:02.164Z,39.04
2023-05-10T06:07:32.161Z,39.13
2023-05-10T06:08:02.210Z,38.97
2023-05-10T06:08:32.161Z,38.99
2023-05-10T06:09:02.160Z,39.01
2023-05-10T06:09:32.175Z,38.69
2023-05-10T06:10:02.166Z,38.12
2023-05-10T06:10:32.170Z,37.87
2023-05-10T06:11:02.167Z,37.58
2023-05-10T06:11:32.165Z,37.16
2023-05-10T06:12:02.174Z,36.94
2023-05-10T06:12:32.163Z,36.55
2023-05-10T06:13:02.230Z,36.52
2023-05-10T06:13:32.263Z,36.64
2023-05-10T06:14:02.169Z,36.72
2023-05-10T06:14:32.163Z,36.92
2023-05-10T06:15:02.169Z,37.34
2023-05-10T06:15:32.166Z,37.55
2023-05-10T06:16:02.181Z,37.65
2023-05-10T06:16:32.226Z,37.55
2023-05-10T06:17:02.198Z,37.81
2023-05-10T06:17:32.193Z,38.01
2023-05-10T06:18:02.267Z,37.95
2023-05-10T06:18:32.171Z,38.09
2023-05-10T06:19:02.168Z,38.28
2023-05-10T06:19:32.168Z,38.51
2023-05-10T06:20:02.179Z,38.73
2023-05-10T06:20:32.170Z,38.71
2023-05-10T06:21:02.178Z,38.8
2023-05-10T06:21:32.177Z,38.71
2023-05-10T06:22:02.185Z,38.92
2023-05-10T06:22:32.168Z,39.27
2023-05-10T06:23:02.174Z,39.33
2023-05-10T06:23:32.188Z,39.06
2023-05-10T06:24:02.167Z,38.74
2023-05-10T06:24:32.183Z,38.22
2023-05-10T06:25:02.171Z,38.08
2023-05-10T06:25:32.166Z,38.15
2023-05-10T06:26:02.181Z,38.13
2023-05-10T06:26:32.167Z,38.15
2023-05-10T06:27:02.169Z,38.26
2023-05-10T06:27:32.171Z,38.44